Terminal Aerodrome Forecast
Issued by NWS

Current Version | Previous Version | Text Only | Print | Product List | Glossary On
Versions: 1 2 3 4 5 6 7 8 9 10 11 12 13 14 15 16 17 18 19 20 21 22 23 24 25 26 27 28 29
000
FTUS41 KILN 220600 AAA
TAFLUK
TAF AMD
KLUK 220631Z 2207/2306 VRB03KT P6SM -RA FEW090 BKN120
     FM220800 21005KT P6SM VCSH BKN035 OVC200
      TEMPO 2208/2212 3SM BR
     FM221500 25008KT P6SM -SHRA VCTS BKN035CB OVC150
     FM222000 27007KT P6SM BKN040
     FM230000 25004KT P6SM VCTS BKN040CB
     FM230300 24004KT P6SM SCT040 BKN080=

USA.gov is the U.S. government's official web portal to all federal, state and local government web resources and services.